createdAt,value
2023-02-18T09:26:14.729Z,141816.06
2023-02-18T09:31:20.541Z,141834.56
2023-02-18T09:36:24.261Z,141846.94
2023-02-18T09:41:34.847Z,141841.94
2023-02-18T09:46:41.894Z,141883.94
2023-02-18T09:51:45.740Z,141898.75
2023-02-18T09:56:53.129Z,141908.66
2023-02-18T10:02:02.221Z,141896.28
2023-02-18T10:07:07.067Z,141964.16
2023-02-18T10:12:15.255Z,141939.50
2023-02-18T10:17:21.496Z,141895.03
2023-02-18T10:22:26.463Z,141874.09
2023-02-18T10:27:31.887Z,141856.78
2023-02-18T10:32:39.027Z,141887.66
2023-02-18T10:37:52.474Z,141902.50
2023-02-18T10:43:02.464Z,141907.41
2023-02-18T10:48:21.485Z,141900.03
2023-02-18T10:53:32.814Z,141877.78
2023-02-18T10:58:44.041Z,141895.03
2023-02-18T11:03:49.920Z,141898.75
2023-02-18T11:08:54.868Z,141896.28
2023-02-18T11:13:59.513Z,141865.41
2023-02-18T11:19:04.707Z,141923.44
2023-02-18T11:24:10.232Z,141964.16
2023-02-18T11:29:19.431Z,141943.22
2023-02-18T11:34:26.376Z,141954.25
2023-02-18T11:39:31.432Z,141953.06
2023-02-18T11:44:37.527Z,141956.78
2023-02-18T11:49:44.192Z,141937.06
2023-02-18T11:55:00.411Z,141903.72
2023-02-18T12:00:05.037Z,141919.75
2023-02-18T12:05:16.242Z,141896.28
2023-02-18T12:10:25.008Z,141813.56
2023-02-18T12:15:47.510Z,141920.97
2023-02-18T12:21:00.810Z,141955.53
2023-02-18T12:26:16.294Z,141974.03
2023-02-18T12:31:30.607Z,141995.06
2023-02-18T12:36:44.040Z,142025.94
2023-02-18T12:41:56.631Z,142061.75
2023-02-18T12:47:08.556Z,142100.06
2023-02-18T12:52:22.047Z,142186.59
2023-02-18T12:57:35.180Z,142274.34
2023-02-18T13:02:47.753Z,142305.25
2023-02-18T13:08:01.923Z,142318.84
2023-02-18T13:13:09.883Z,142365.84
2023-02-18T13:18:14.897Z,142398.00
2023-02-18T13:23:23.899Z,142457.38
2023-02-18T13:28:30.513Z,142449.97
2023-02-18T13:33:40.979Z,142487.09
2023-02-18T13:38:57.867Z,142471.03
2023-02-18T13:44:01.349Z,142499.47
2023-02-18T13:49:07.396Z,142497.00
2023-02-18T13:54:22.664Z,142532.88
2023-02-18T13:59:30.848Z,142532.88
2023-02-18T14:04:37.879Z,142536.59
2023-02-18T14:09:44.659Z,142535.34
2023-02-18T14:14:50.679Z,142594.72
2023-02-18T14:19:54.987Z,142584.84
2023-02-18T14:25:03.745Z,142578.66
2023-02-18T14:30:09.228Z,142547.72
2023-02-18T14:35:24.679Z,142553.91
2023-02-18T14:40:38.523Z,142589.78
2023-02-18T14:46:08.524Z,142597.19
2023-02-18T14:51:16.428Z,142594.72
2023-02-18T14:56:22.561Z,142579.91
2023-02-18T15:01:30.479Z,142569.97
2023-02-18T15:06:35.454Z,142561.31
2023-02-18T15:11:42.128Z,142535.34
2023-02-18T15:16:46.215Z,142514.31
2023-02-18T15:21:50.585Z,142365.84
2023-02-18T15:26:56.808Z,142318.84
2023-02-18T15:32:00.944Z,142301.56
2023-02-18T15:37:06.396Z,142151.97
2023-02-18T15:42:15.746Z,142098.84
2023-02-18T15:47:21.612Z,142121.03
2023-02-18T15:52:28.730Z,142086.44
2023-02-18T15:57:34.179Z,142066.66
2023-02-18T16:02:51.261Z,142014.81
2023-02-18T16:07:57.937Z,141996.28
2023-02-18T16:13:03.305Z,141966.63
2023-02-18T16:18:07.056Z,141949.38
2023-02-18T16:23:12.210Z,141903.72
2023-02-18T16:28:19.459Z,141830.84
2023-02-18T16:33:25.446Z,141750.63
2023-02-18T16:38:34.814Z,141701.25
2023-02-18T16:43:39.839Z,141681.56
2023-02-18T16:48:46.552Z,141642.03
2023-02-18T16:53:50.272Z,141626.03
2023-02-18T16:58:55.179Z,141610.00
2023-02-18T17:03:59.421Z,141598.91
2023-02-18T17:09:03.626Z,141591.50
2023-02-18T17:14:12.176Z,141566.84
2023-02-18T17:19:16.604Z,141561.88
2023-02-18T17:24:20.852Z,141571.78
2023-02-18T17:29:28.503Z,141538.50
2023-02-18T17:34:32.697Z,141571.78
2023-02-18T17:39:36.443Z,141554.50
2023-02-18T17:44:43.294Z,141540.94
2023-02-18T17:49:47.325Z,141534.78
2023-02-18T17:54:51.037Z,141515.06
2023-02-18T17:59:58.319Z,141527.38
2023-02-18T18:05:02.265Z,141526.13
2023-02-18T18:10:06.566Z,141523.66
2023-02-18T18:15:19.237Z,141507.66
2023-02-18T18:20:28.353Z,141519.97
2023-02-18T18:25:34.467Z,141519.97
2023-02-18T18:30:43.520Z,141513.81
2023-02-18T18:35:50.401Z,141497.81
2023-02-18T18:40:57.160Z,141471.94
2023-02-18T18:46:02.134Z,141457.16
2023-02-18T18:51:06.066Z,141448.50
2023-02-18T18:56:09.778Z,141414.00
2023-02-18T19:01:17.648Z,141443.59
2023-02-18T19:06:22.470Z,141420.16
2023-02-18T19:11:29.587Z,141453.47
2023-02-18T19:16:48.247Z,141473.16
2023-02-18T19:21:54.464Z,141499.06
2023-02-18T19:27:02.280Z,141522.44
2023-02-18T19:32:07.417Z,141539.72
2023-02-18T19:37:14.824Z,141521.22
2023-02-18T19:42:20.627Z,141491.66
2023-02-18T19:47:25.350Z,141480.59
2023-02-18T19:52:32.423Z,141485.53
2023-02-18T19:57:36.528Z,141533.53
2023-02-18T20:02:41.706Z,141499.06
2023-02-18T20:07:47.758Z,141453.47
2023-02-18T20:12:53.868Z,141462.09
2023-02-18T20:17:57.719Z,141452.25
2023-02-18T20:23:03.172Z,141491.66
2023-02-18T20:28:06.751Z,141474.41
2023-02-18T20:33:10.535Z,141495.34
2023-02-18T20:38:16.991Z,141465.78
2023-02-18T20:43:22.378Z,141487.97
2023-02-18T20:48:26.301Z,141455.94
2023-02-18T20:53:33.177Z,141439.88
2023-02-18T20:58:37.262Z,141441.13
2023-02-18T21:03:41.488Z,141441.13
2023-02-18T21:08:48.888Z,141426.34
2023-02-18T21:13:53.888Z,141436.19
2023-02-18T21:18:59.045Z,141410.31
2023-02-18T21:24:25.793Z,141420.16
2023-02-18T21:29:32.489Z,141421.38
2023-02-18T21:34:38.244Z,141417.69
2023-02-18T21:39:44.248Z,141415.22
2023-02-18T21:44:50.843Z,141384.44
2023-02-18T21:49:58.567Z,141421.38
2023-02-18T21:55:03.604Z,141381.97
2023-02-18T22:00:20.091Z,141381.97
2023-02-18T22:05:26.324Z,141402.94
2023-02-18T22:10:30.087Z,141364.69
2023-02-18T22:15:39.792Z,141395.56
2023-02-18T22:20:45.090Z,141399.25
2023-02-18T22:25:49.727Z,141388.13
2023-02-18T22:30:54.923Z,141404.16
2023-02-18T22:36:02.610Z,141379.50
2023-02-18T22:41:10.304Z,141402.94
2023-02-18T22:46:19.277Z,141407.84
2023-02-18T22:51:25.229Z,141402.94
2023-02-18T22:56:29.809Z,141396.78
2023-02-18T23:01:35.650Z,141396.78
